Kanab, UT (84741)

8:07 PM MDT on September 02, 2014 (GMT -0600)
RAWS BUCKSKIN MTN AZ US | Change Station
CLOSE
Current Station
Personal Weather Station
Location: Kanab, UT
Elevation: 6399 ft
Nearby Weather Stations

Elev 6399 ft 36.92 °N, 112.20 °W | Updated 34 minutes ago

Clear
Clear
80 °F
Feels Like 78 °F
N
7
Wind Variable Wind from WSW
Gusts 13.0 mph

Today
High -- | Low -- °F
--% Chance of Precip.
Yesterday
High -- | Low -- °F
Precip. -- in
7:00 AM 7:55 PM
First Quarter, 57% visible
Pressure 29.67 in
Visibility 10.0 miles
Clouds Clear
Heat Index 78 °F
Dew Point 28 °F
Humidity 15%
Rainfall 0.00 in
Snow Depth Not available.
UV 0 out of 12
Pollen 7.50 out of 12
Air Quality Not available.
Flu Activity Not available.
METAR KPGA 030153Z AUTO 00000KT 10SM CLR 32/04 A2988 RMK AO2 SLP046 T03170044

More Conditions Fewer Conditions

Pressure 29.67 in
Visibility 10.0 miles
Clouds Clear
Heat Index 78 °F
Dew Point 28 °F
Humidity 15%
Rainfall 0.00 in
Snow Depth Not available.
UV 0 out of 12
Pollen 7.50 out of 12
Air Quality Not available.
Flu Activity Not available.
METAR KPGA 030153Z AUTO 00000KT 10SM CLR 32/04 A2988 RMK AO2 SLP046 T03170044

More Conditions Fewer Conditions

10-Day Weather Forecast

Almanac

Astronomy

Sep. 02, 2014 Rise Set
Actual Time 7:00 AM MDT 7:55 PM MDT
Civil Twilight 6:33 AM MDT 8:21 PM MDT
Nautical Twilight 6:01 AM MDT 8:53 PM MDT
Astronomical Twilight 5:29 AM MDT 9:25 PM MDT
Moon 2:38 PM MDT (9/2) 12:10 AM MDT (9/2)
Length of Visible Light 13h 48m
Length of Day
12h 55m
Tomorrow will be 2m 17s shorter.
First Quarter, 57% of the Moon is Illuminated
Today
First Quarter
Sep 8
Full
Sep 15
Last Quarter
Sep 24
New
Oct 1
First Quarter

Today's Extremes

State Highs State Lows

Community

WunderPhotos

Upload Photos

1,749,837 photos uploaded!

Nearby

Snow Depth

Station Depth Elevation
Agua Canyon 2 in 8900 ft
Long Valley Jct 0 in 7360 ft
Midway Valley 2 in 9800 ft
Gooseberry R.S. 0 in 7920 ft
Cascade Mountain 0 in 7768 ft

Earthquake Activity

City Distance Mag. Time & Date
No recent earthquake activity has been reported nearby.
Minimum magnitude displayed is 2.5.

Coastal Water Temperatures

Place Temperature
No Stations Reporting

Nearby Weather Stations